Time;durP1;ratioP1;P1;durP2;ratioP2;P2;SDS_P1;SDS_P2;PMS_P1;PMS_P2;Temp;Humidity;BMP_temperature;BMP_pressure;BME280_temperature;BME280_humidity;BME280_pressure;Samples;Min_cycle;Max_cycle;Signal;HPM_P1;HPM_P2
2022/07/29 00:09:52;;;;;;;0.30;0.30;;;20.70;52.30;;;;;;20822371;28;20043;-76
2022/07/29 00:19:53;;;;;;;1.35;0.57;;;20.70;52.30;;;;;;20791741;28;20038;-76
2022/07/29 00:29:53;;;;;;;1.38;0.30;;;20.70;52.40;;;;;;20828022;28;20369;-76
2022/07/29 00:39:54;;;;;;;0.65;0.30;;;20.70;52.40;;;;;;20811467;28;20574;-76
2022/07/29 00:49:54;;;;;;;1.08;0.30;;;20.70;52.50;;;;;;20793301;28;20036;-76
2022/07/29 00:59:55;;;;;;;0.60;0.50;;;20.70;52.50;;;;;;21189033;23;20050;-76
2022/07/29 01:09:56;;;;;;;0.50;0.30;;;20.70;52.50;;;;;;20817519;28;20052;-76
2022/07/29 01:20:20;;;;;;;0.52;0.35;;;20.70;52.50;;;;;;20824700;28;20053;-76
2022/07/29 01:30:21;;;;;;;0.32;0.17;;;20.70;52.50;;;;;;20822452;28;20091;-75
2022/07/29 01:40:42;;;;;;;0.38;0.30;;;20.70;52.60;;;;;;20806265;28;20037;-76
2022/07/29 01:51:03;;;;;;;1.10;0.30;;;20.70;52.60;;;;;;20811982;28;20110;-76
2022/07/29 02:01:03;;;;;;;0.80;0.50;;;20.70;52.60;;;;;;20805743;28;20045;-76
2022/07/29 02:11:04;;;;;;;0.77;0.40;;;20.60;52.60;;;;;;20830102;28;20026;-76
2022/07/29 02:21:04;;;;;;;0.43;0.43;;;20.60;52.60;;;;;;20796079;28;20040;-75
2022/07/29 02:31:05;;;;;;;2.70;0.37;;;20.60;52.60;;;;;;20804180;28;20506;-76
2022/07/29 02:41:11;;;;;;;0.82;0.40;;;20.60;52.70;;;;;;20787158;28;20810;-76
2022/07/29 02:51:13;;;;;;;0.73;0.47;;;20.60;52.70;;;;;;20791430;28;20045;-76
2022/07/29 03:01:21;;;;;;;0.57;0.40;;;20.60;52.70;;;;;;20802020;28;20045;-76
2022/07/29 03:11:22;;;;;;;0.75;0.38;;;20.60;52.80;;;;;;20828071;28;20077;-76
2022/07/29 03:21:22;;;;;;;0.65;0.50;;;20.60;52.90;;;;;;20805948;28;20601;-76
2022/07/29 03:31:23;;;;;;;0.77;0.35;;;20.60;52.80;;;;;;20833844;28;20041;-76
2022/07/29 03:41:23;;;;;;;1.92;0.55;;;20.60;52.90;;;;;;20832863;28;20060;-76
2022/07/29 03:51:25;;;;;;;1.50;0.40;;;20.60;52.90;;;;;;20811615;28;20463;-76
2022/07/29 04:01:26;;;;;;;0.65;0.40;;;20.60;52.90;;;;;;20813407;28;20526;-76
2022/07/29 04:11:26;;;;;;;0.65;0.40;;;20.60;52.90;;;;;;20819500;28;20025;-77
2022/07/29 04:21:27;;;;;;;0.63;0.43;;;20.60;52.90;;;;;;20828596;28;20041;-76
2022/07/29 04:31:28;;;;;;;1.30;0.73;;;20.60;52.90;;;;;;20810407;28;20187;-76
2022/07/29 04:41:28;;;;;;;1.07;0.50;;;20.60;52.90;;;;;;20826880;28;20037;-77
2022/07/29 04:51:29;;;;;;;0.77;0.40;;;20.60;53.00;;;;;;20810106;28;20290;-76
2022/07/29 05:01:29;;;;;;;0.35;0.35;;;20.60;53.00;;;;;;20825599;28;20304;-76
2022/07/29 05:11:30;;;;;;;0.65;0.50;;;20.60;53.10;;;;;;20807409;28;20061;-76
2022/07/29 05:21:31;;;;;;;0.70;0.50;;;20.60;53.80;;;;;;20798813;28;20041;-76
2022/07/29 05:31:31;;;;;;;0.68;0.55;;;20.60;53.20;;;;;;20800270;28;20143;-76
2022/07/29 05:41:32;;;;;;;1.40;0.60;;;20.50;53.20;;;;;;20801586;28;20044;-75
2022/07/29 05:51:33;;;;;;;0.40;0.40;;;20.60;53.20;;;;;;20805648;28;20172;-76
2022/07/29 06:01:34;;;;;;;0.93;0.70;;;20.60;53.30;;;;;;20805382;28;20122;-77
2022/07/29 06:11:34;;;;;;;1.13;0.68;;;20.50;53.30;;;;;;20813891;28;20441;-77
2022/07/29 06:21:35;;;;;;;1.02;0.60;;;20.50;53.30;;;;;;20820663;28;20056;-76
2022/07/29 06:31:35;;;;;;;0.75;0.55;;;20.50;53.40;;;;;;20821662;28;20373;-75
2022/07/29 06:41:36;;;;;;;1.47;0.40;;;20.50;53.40;;;;;;20820053;28;20068;-74
2022/07/29 06:51:43;;;;;;;0.63;0.50;;;20.50;53.50;;;;;;20826543;28;20287;-76
2022/07/29 07:01:43;;;;;;;0.50;0.50;;;20.50;53.50;;;;;;20818178;28;20041;-76
2022/07/29 07:11:44;;;;;;;0.80;0.50;;;20.60;53.50;;;;;;20826885;28;20037;-75
2022/07/29 07:21:45;;;;;;;0.50;0.50;;;20.60;53.40;;;;;;20833335;28;20487;-75
2022/07/29 07:31:45;;;;;;;0.95;0.70;;;20.60;53.30;;;;;;20816117;28;20064;-75
2022/07/29 07:41:46;;;;;;;0.60;0.47;;;20.60;53.30;;;;;;20815330;28;20062;-74
2022/07/29 07:51:46;;;;;;;0.80;0.50;;;20.60;53.30;;;;;;20814443;28;20045;-75
2022/07/29 08:01:47;;;;;;;1.48;0.50;;;20.60;53.30;;;;;;20813349;28;20144;-76
2022/07/29 08:11:47;;;;;;;0.98;0.52;;;20.60;53.20;;;;;;20838553;28;20037;-75
2022/07/29 08:21:48;;;;;;;1.15;0.43;;;20.70;53.30;;;;;;20828511;28;20124;-75
2022/07/29 08:31:48;;;;;;;0.75;0.60;;;20.70;53.30;;;;;;20829626;28;20030;-75
2022/07/29 08:41:50;;;;;;;1.00;0.80;;;20.70;53.20;;;;;;20827555;28;20191;-74
2022/07/29 08:51:51;;;;;;;0.68;0.40;;;20.80;53.30;;;;;;20827355;28;20033;-75
2022/07/29 09:01:52;;;;;;;1.17;0.50;;;20.80;53.20;;;;;;20792703;28;20438;-75
2022/07/29 09:11:53;;;;;;;0.88;0.60;;;20.80;53.20;;;;;;20800940;28;20033;-75
2022/07/29 09:22:00;;;;;;;0.95;0.65;;;20.80;53.20;;;;;;20824835;28;20127;-74
2022/07/29 09:32:00;;;;;;;0.73;0.60;;;20.80;53.10;;;;;;20807671;28;20037;-74
2022/07/29 09:42:03;;;;;;;0.82;0.60;;;20.90;53.20;;;;;;20822343;28;20056;-74
2022/07/29 09:52:06;;;;;;;0.77;0.77;;;20.90;53.10;;;;;;20789415;28;20124;-75
2022/07/29 10:02:17;;;;;;;1.00;0.50;;;20.90;53.10;;;;;;20821809;28;20041;-75
2022/07/29 10:12:18;;;;;;;1.90;0.82;;;20.90;53.10;;;;;;20830745;28;20119;-74
2022/07/29 10:22:19;;;;;;;0.93;0.52;;;20.90;53.00;;;;;;20821034;28;20060;-74
2022/07/29 10:32:26;;;;;;;2.03;0.40;;;20.90;53.10;;;;;;20820955;28;20033;-74
2022/07/29 10:42:28;;;;;;;1.48;0.88;;;20.90;53.10;;;;;;20807135;28;20048;-75
2022/07/29 10:53:04;;;;;;;0.70;0.52;;;20.90;53.10;;;;;;20800686;28;20484;-75
2022/07/29 11:03:04;;;;;;;1.03;0.60;;;21.00;53.10;;;;;;20791813;28;20053;-76
2022/07/29 11:13:05;;;;;;;0.52;0.40;;;21.00;53.10;;;;;;20843833;28;20163;-75
2022/07/29 11:23:27;;;;;;;1.10;0.40;;;21.00;53.10;;;;;;20795404;28;20033;-75
2022/07/29 11:33:31;;;;;;;0.82;0.60;;;21.00;53.10;;;;;;20832109;28;20299;-74
2022/07/29 11:43:59;;;;;;;0.35;0.35;;;21.10;53.10;;;;;;20815703;28;20423;-74
2022/07/29 11:53:59;;;;;;;2.15;0.80;;;21.10;53.10;;;;;;20797050;28;20091;-74
2022/07/29 12:04:04;;;;;;;1.27;0.70;;;21.10;53.20;;;;;;20813033;28;20124;-75
2022/07/29 12:14:05;;;;;;;1.92;0.60;;;21.10;53.10;;;;;;20822408;28;20042;-75
2022/07/29 12:24:06;;;;;;;0.85;0.68;;;21.10;53.10;;;;;;20796245;28;20498;-74
2022/07/29 12:34:06;;;;;;;1.95;0.70;;;21.10;53.10;;;;;;20783750;28;20037;-75
2022/07/29 12:44:07;;;;;;;1.20;0.63;;;21.20;53.20;;;;;;20801074;28;20381;-74
2022/07/29 12:54:13;;;;;;;0.55;0.40;;;21.10;53.10;;;;;;20802016;28;20488;-75
2022/07/29 13:04:26;;;;;;;0.52;0.43;;;21.20;53.20;;;;;;20813274;28;20091;-76
2022/07/29 13:14:41;;;;;;;0.80;0.43;;;21.20;53.20;;;;;;20801555;28;20041;-75
2022/07/29 13:24:51;;;;;;;1.25;0.60;;;21.20;53.20;;;;;;20807899;28;20115;-75
2022/07/29 13:34:51;;;;;;;1.10;0.65;;;21.20;53.20;;;;;;20808241;28;20045;-76
2022/07/29 13:44:52;;;;;;;0.60;0.40;;;21.20;53.20;;;;;;20789697;28;20150;-76
2022/07/29 13:54:53;;;;;;;1.40;0.60;;;21.30;53.20;;;;;;20805352;28;20041;-76
2022/07/29 14:04:53;;;;;;;0.67;0.47;;;21.40;53.20;;;;;;20804674;28;20069;-75
2022/07/29 14:14:54;;;;;;;0.80;0.43;;;21.40;53.00;;;;;;20822553;28;20832;-75
2022/07/29 14:24:54;;;;;;;0.43;0.40;;;21.40;53.00;;;;;;20797736;28;20037;-75
2022/07/29 14:34:55;;;;;;;0.40;0.22;;;21.50;53.00;;;;;;20792754;28;20104;-75
2022/07/29 14:44:56;;;;;;;0.60;0.37;;;21.50;53.00;;;;;;20803480;28;20120;-75
2022/07/29 14:54:56;;;;;;;0.60;0.40;;;21.50;53.00;;;;;;20819452;28;20065;-75
2022/07/29 15:04:57;;;;;;;0.40;0.40;;;21.50;52.90;;;;;;20801994;28;20050;-75
2022/07/29 15:14:58;;;;;;;0.60;0.50;;;21.60;53.00;;;;;;20821499;28;20080;-76
2022/07/29 15:24:58;;;;;;;1.38;0.50;;;21.60;53.00;;;;;;20833139;28;20049;-74
2022/07/29 15:34:59;;;;;;;0.52;0.30;;;21.50;53.00;;;;;;20832486;28;20025;-77
2022/07/29 15:45:02;;;;;;;0.60;0.40;;;21.60;53.00;;;;;;20812740;28;20045;-75
2022/07/29 15:55:03;;;;;;;0.90;0.60;;;21.60;53.00;;;;;;20814776;28;20033;-76
2022/07/29 16:05:04;;;;;;;0.57;0.50;;;21.60;53.00;;;;;;20830375;28;20045;-76
2022/07/29 16:15:06;;;;;;;0.85;0.50;;;21.60;53.00;;;;;;20822696;28;20042;-74
2022/07/29 16:25:07;;;;;;;0.32;0.30;;;21.60;53.00;;;;;;20829286;28;20466;-76
2022/07/29 16:35:08;;;;;;;0.40;0.40;;;21.60;53.10;;;;;;20808059;28;20029;-76
2022/07/29 16:45:09;;;;;;;0.65;0.40;;;21.60;53.10;;;;;;20813597;28;20048;-75
2022/07/29 16:55:09;;;;;;;0.65;0.40;;;21.60;53.10;;;;;;20811907;28;20069;-75
2022/07/29 17:05:11;;;;;;;0.40;0.30;;;21.70;53.20;;;;;;20800267;28;20037;-75
2022/07/29 17:15:12;;;;;;;0.40;0.40;;;21.70;53.00;;;;;;20800618;28;20501;-75
2022/07/29 17:25:12;;;;;;;0.60;0.40;;;21.80;53.00;;;;;;20823870;28;20045;-76
2022/07/29 17:45:33;;;;;;;0.57;0.40;;;21.80;52.90;;;;;;20824077;28;20053;-75
2022/07/29 17:55:34;;;;;;;0.30;0.20;;;21.80;53.10;;;;;;20822266;28;20479;-75
2022/07/29 18:05:34;;;;;;;0.38;0.35;;;21.80;53.20;;;;;;20789835;28;20863;-74
2022/07/29 18:15:35;;;;;;;0.40;0.40;;;21.80;53.30;;;;;;20813519;28;20479;-76
2022/07/29 18:25:36;;;;;;;0.65;0.30;;;21.80;53.40;;;;;;20802656;28;20038;-74
2022/07/29 18:35:36;;;;;;;0.57;0.40;;;21.70;53.40;;;;;;20804086;28;20152;-75
2022/07/29 18:45:38;;;;;;;0.35;0.30;;;21.70;53.40;;;;;;20825051;28;20574;-74
2022/07/29 18:55:38;;;;;;;0.50;0.30;;;21.70;53.50;;;;;;20802922;28;20436;-75
2022/07/29 19:05:39;;;;;;;0.60;0.40;;;21.70;53.50;;;;;;20818367;28;20132;-75
2022/07/29 19:15:39;;;;;;;0.40;0.30;;;21.70;53.50;;;;;;20804039;28;20041;-75
2022/07/29 19:25:40;;;;;;;0.40;0.40;;;21.70;53.60;;;;;;20833375;28;20061;-75
2022/07/29 19:35:40;;;;;;;0.28;0.28;;;21.70;53.60;;;;;;20800166;28;20430;-75
2022/07/29 19:45:41;;;;;;;0.60;0.32;;;21.70;53.70;;;;;;20816893;28;20498;-75
2022/07/29 19:55:42;;;;;;;0.30;0.20;;;21.60;53.70;;;;;;20831522;28;20432;-76
2022/07/29 20:05:42;;;;;;;0.30;0.30;;;21.60;53.70;;;;;;20808890;28;20125;-76
2022/07/29 20:15:43;;;;;;;0.47;0.20;;;21.60;53.80;;;;;;20829686;28;20452;-76
2022/07/29 20:25:44;;;;;;;0.43;0.30;;;21.60;53.80;;;;;;20812425;28;20037;-76
2022/07/29 20:35:46;;;;;;;0.20;0.20;;;21.60;53.90;;;;;;20827680;28;20036;-76
2022/07/29 20:45:47;;;;;;;0.40;0.30;;;21.60;53.90;;;;;;20795461;28;20120;-77
2022/07/29 20:55:47;;;;;;;2.28;0.40;;;21.60;53.90;;;;;;20809809;28;20468;-77
2022/07/29 21:05:48;;;;;;;0.27;0.20;;;21.60;53.90;;;;;;20826065;28;20043;-76
2022/07/29 21:15:50;;;;;;;0.47;0.30;;;21.60;54.00;;;;;;20816460;28;20841;-76
2022/07/29 21:25:51;;;;;;;0.43;0.40;;;21.60;54.00;;;;;;20824110;28;20092;-76
2022/07/29 21:35:52;;;;;;;0.75;0.30;;;21.60;54.00;;;;;;20806570;28;20049;-76
2022/07/29 21:45:53;;;;;;;0.13;0.13;;;21.60;54.00;;;;;;20805894;28;20141;-77
2022/07/29 21:55:53;;;;;;;0.40;0.38;;;21.60;54.10;;;;;;20822099;28;20323;-76
2022/07/29 22:05:54;;;;;;;0.20;0.20;;;21.60;54.00;;;;;;20805439;28;20033;-76
2022/07/29 22:15:55;;;;;;;0.55;0.30;;;21.60;54.10;;;;;;20830610;28;20295;-76
2022/07/29 22:25:56;;;;;;;0.43;0.40;;;21.60;54.10;;;;;;20827460;28;20037;-77
2022/07/29 22:35:56;;;;;;;0.22;0.22;;;21.60;54.10;;;;;;20848068;28;20174;-77
2022/07/29 22:45:57;;;;;;;0.55;0.40;;;21.60;54.10;;;;;;20847733;28;20041;-76
2022/07/29 22:55:57;;;;;;;0.50;0.20;;;21.60;54.20;;;;;;20826128;28;20044;-77
2022/07/29 23:05:58;;;;;;;0.38;0.32;;;21.60;54.10;;;;;;20846400;28;20045;-76
2022/07/29 23:15:59;;;;;;;0.32;0.32;;;21.60;54.20;;;;;;20840863;28;20116;-76
2022/07/29 23:26:00;;;;;;;0.68;0.40;;;21.60;54.10;;;;;;20829645;28;20041;-76
2022/07/29 23:36:00;;;;;;;0.63;0.50;;;21.60;54.10;;;;;;20802194;28;20033;-76
2022/07/29 23:46:01;;;;;;;0.35;0.35;;;21.60;54.10;;;;;;20831752;28;20079;-76
2022/07/29 23:56:01;;;;;;;0.38;0.38;;;21.60;54.20;;;;;;20814716;28;20041;-76
